sensor_id;sensor_type;location;lat;lon;timestamp;temperature;humidity
34877;DHT22;21086;44.780;17.194;2022-10-19T00:01:19;12.90;99.90
34877;DHT22;21086;44.780;17.194;2022-10-19T00:03:48;12.90;99.90
34877;DHT22;21086;44.780;17.194;2022-10-19T00:06:28;12.80;99.90
34877;DHT22;21086;44.780;17.194;2022-10-19T00:09:05;12.90;99.90
34877;DHT22;21086;44.780;17.194;2022-10-19T00:11:33;13.00;99.90
34877;DHT22;21086;44.780;17.194;2022-10-19T00:14:01;13.10;99.90
34877;DHT22;21086;44.780;17.194;2022-10-19T00:16:32;13.10;99.90
34877;DHT22;21086;44.780;17.194;2022-10-19T00:19:00;13.10;99.90
34877;DHT22;21086;44.780;17.194;2022-10-19T00:21:28;13.10;99.90
34877;DHT22;21086;44.780;17.194;2022-10-19T00:23:55;13.20;99.90
34877;DHT22;21086;44.780;17.194;2022-10-19T00:26:22;13.30;99.90
34877;DHT22;21086;44.780;17.194;2022-10-19T00:28:52;13.30;99.90
34877;DHT22;21086;44.780;17.194;2022-10-19T00:31:20;13.20;99.90
34877;DHT22;21086;44.780;17.194;2022-10-19T00:33:47;13.20;99.90
34877;DHT22;21086;44.780;17.194;2022-10-19T00:38:52;13.10;99.90
34877;DHT22;21086;44.780;17.194;2022-10-19T00:41:22;13.20;99.90
34877;DHT22;21086;44.780;17.194;2022-10-19T00:43:52;13.10;99.90
34877;DHT22;21086;44.780;17.194;2022-10-19T00:46:20;13.20;99.90
34877;DHT22;21086;44.780;17.194;2022-10-19T00:48:48;13.20;99.90
34877;DHT22;21086;44.780;17.194;2022-10-19T00:51:16;13.20;99.90
34877;DHT22;21086;44.780;17.194;2022-10-19T00:53:43;13.20;99.90
34877;DHT22;21086;44.780;17.194;2022-10-19T00:56:12;13.20;99.90
34877;DHT22;21086;44.780;17.194;2022-10-19T00:58:42;13.20;99.90
34877;DHT22;21086;44.780;17.194;2022-10-19T01:01:12;13.10;99.90
34877;DHT22;21086;44.780;17.194;2022-10-19T01:03:41;13.00;99.90
34877;DHT22;21086;44.780;17.194;2022-10-19T01:06:09;13.10;99.90
34877;DHT22;21086;44.780;17.194;2022-10-19T01:08:37;13.10;99.90
34877;DHT22;21086;44.780;17.194;2022-10-19T01:11:11;13.10;99.90
34877;DHT22;21086;44.780;17.194;2022-10-19T01:21:53;13.10;99.90
34877;DHT22;21086;44.780;17.194;2022-10-19T01:33:44;12.90;99.90
34877;DHT22;21086;44.780;17.194;2022-10-19T01:36:21;12.90;99.90
34877;DHT22;21086;44.780;17.194;2022-10-19T01:44:36;12.70;99.90
34877;DHT22;21086;44.780;17.194;2022-10-19T01:47:09;12.70;99.90
34877;DHT22;21086;44.780;17.194;2022-10-19T01:49:50;12.60;99.90
34877;DHT22;21086;44.780;17.194;2022-10-19T01:52:21;12.60;99.90
34877;DHT22;21086;44.780;17.194;2022-10-19T01:54:51;12.70;99.90
34877;DHT22;21086;44.780;17.194;2022-10-19T01:57:24;12.60;99.90
34877;DHT22;21086;44.780;17.194;2022-10-19T01:59:53;12.60;99.90
34877;DHT22;21086;44.780;17.194;2022-10-19T02:02:23;12.70;99.90
34877;DHT22;21086;44.780;17.194;2022-10-19T02:04:52;12.70;99.90
34877;DHT22;21086;44.780;17.194;2022-10-19T02:07:21;12.80;99.90
34877;DHT22;21086;44.780;17.194;2022-10-19T02:09:48;12.80;99.90
34877;DHT22;21086;44.780;17.194;2022-10-19T02:12:16;12.80;99.90
34877;DHT22;21086;44.780;17.194;2022-10-19T02:14:46;12.80;99.90
34877;DHT22;21086;44.780;17.194;2022-10-19T02:17:18;12.80;99.90
34877;DHT22;21086;44.780;17.194;2022-10-19T02:19:46;12.80;99.90
34877;DHT22;21086;44.780;17.194;2022-10-19T02:22:13;12.80;99.90
34877;DHT22;21086;44.780;17.194;2022-10-19T02:24:40;12.80;99.90
34877;DHT22;21086;44.780;17.194;2022-10-19T02:27:07;12.70;99.90
34877;DHT22;21086;44.780;17.194;2022-10-19T02:29:36;12.70;99.90
34877;DHT22;21086;44.780;17.194;2022-10-19T02:32:03;12.60;99.90
34877;DHT22;21086;44.780;17.194;2022-10-19T02:34:30;12.50;99.90
34877;DHT22;21086;44.780;17.194;2022-10-19T02:36:58;12.50;99.90
34877;DHT22;21086;44.780;17.194;2022-10-19T02:39:25;12.40;99.90
34877;DHT22;21086;44.780;17.194;2022-10-19T02:42:11;12.30;99.90
34877;DHT22;21086;44.780;17.194;2022-10-19T02:47:54;12.30;99.90
34877;DHT22;21086;44.780;17.194;2022-10-19T02:50:23;12.30;99.90
34877;DHT22;21086;44.780;17.194;2022-10-19T02:52:50;12.30;99.90
34877;DHT22;21086;44.780;17.194;2022-10-19T02:55:17;12.30;99.90
34877;DHT22;21086;44.780;17.194;2022-10-19T02:57:44;12.30;99.90
34877;DHT22;21086;44.780;17.194;2022-10-19T03:00:11;12.30;99.90
34877;DHT22;21086;44.780;17.194;2022-10-19T03:02:37;12.20;99.90
34877;DHT22;21086;44.780;17.194;2022-10-19T03:05:05;12.30;99.90
34877;DHT22;21086;44.780;17.194;2022-10-19T03:07:32;12.20;99.90
34877;DHT22;21086;44.780;17.194;2022-10-19T03:09:59;12.30;99.90
34877;DHT22;21086;44.780;17.194;2022-10-19T03:12:26;12.20;99.90
34877;DHT22;21086;44.780;17.194;2022-10-19T03:14:53;12.20;99.90
34877;DHT22;21086;44.780;17.194;2022-10-19T03:17:19;12.20;99.90
34877;DHT22;21086;44.780;17.194;2022-10-19T03:19:46;12.20;99.90
34877;DHT22;21086;44.780;17.194;2022-10-19T03:22:13;12.20;99.90
34877;DHT22;21086;44.780;17.194;2022-10-19T03:24:40;12.30;99.90
34877;DHT22;21086;44.780;17.194;2022-10-19T03:27:07;12.30;99.90
34877;DHT22;21086;44.780;17.194;2022-10-19T03:29:34;12.30;99.90
34877;DHT22;21086;44.780;17.194;2022-10-19T03:32:00;12.20;99.90
34877;DHT22;21086;44.780;17.194;2022-10-19T03:34:27;12.20;99.90
34877;DHT22;21086;44.780;17.194;2022-10-19T03:36:54;12.20;99.90
34877;DHT22;21086;44.780;17.194;2022-10-19T03:39:22;12.30;99.90
34877;DHT22;21086;44.780;17.194;2022-10-19T03:41:49;12.20;99.90
34877;DHT22;21086;44.780;17.194;2022-10-19T03:44:15;12.20;99.90
34877;DHT22;21086;44.780;17.194;2022-10-19T03:46:42;12.10;99.90
34877;DHT22;21086;44.780;17.194;2022-10-19T03:49:09;12.10;99.90
34877;DHT22;21086;44.780;17.194;2022-10-19T03:51:37;12.10;99.90
34877;DHT22;21086;44.780;17.194;2022-10-19T03:54:08;12.10;99.90
34877;DHT22;21086;44.780;17.194;2022-10-19T03:56:37;12.00;99.90
34877;DHT22;21086;44.780;17.194;2022-10-19T03:59:05;12.10;99.90
34877;DHT22;21086;44.780;17.194;2022-10-19T04:01:40;12.20;99.90
34877;DHT22;21086;44.780;17.194;2022-10-19T04:04:11;12.20;99.90
34877;DHT22;21086;44.780;17.194;2022-10-19T04:06:42;12.10;99.90
34877;DHT22;21086;44.780;17.194;2022-10-19T04:09:12;12.10;99.90
34877;DHT22;21086;44.780;17.194;2022-10-19T04:11:39;12.10;99.90
34877;DHT22;21086;44.780;17.194;2022-10-19T04:14:07;12.20;99.90
34877;DHT22;21086;44.780;17.194;2022-10-19T04:16:35;12.20;99.90
34877;DHT22;21086;44.780;17.194;2022-10-19T04:19:02;12.10;99.90
34877;DHT22;21086;44.780;17.194;2022-10-19T04:21:31;12.10;99.90
34877;DHT22;21086;44.780;17.194;2022-10-19T04:24:08;12.10;99.90
34877;DHT22;21086;44.780;17.194;2022-10-19T04:26:41;12.00;99.90
34877;DHT22;21086;44.780;17.194;2022-10-19T04:29:10;12.00;99.90
34877;DHT22;21086;44.780;17.194;2022-10-19T04:31:37;12.00;99.90
34877;DHT22;21086;44.780;17.194;2022-10-19T04:34:05;12.00;99.90
34877;DHT22;21086;44.780;17.194;2022-10-19T04:36:33;12.00;99.90
34877;DHT22;21086;44.780;17.194;2022-10-19T04:38:59;12.00;99.90
34877;DHT22;21086;44.780;17.194;2022-10-19T04:41:26;12.10;99.90
34877;DHT22;21086;44.780;17.194;2022-10-19T04:43:55;12.10;99.90
34877;DHT22;21086;44.780;17.194;2022-10-19T04:46:23;12.10;99.90
34877;DHT22;21086;44.780;17.194;2022-10-19T04:48:51;12.10;99.90
34877;DHT22;21086;44.780;17.194;2022-10-19T04:51:18;12.00;99.90
34877;DHT22;21086;44.780;17.194;2022-10-19T04:53:46;12.00;99.90
34877;DHT22;21086;44.780;17.194;2022-10-19T04:56:24;12.00;99.90
34877;DHT22;21086;44.780;17.194;2022-10-19T04:58:55;12.00;99.90
34877;DHT22;21086;44.780;17.194;2022-10-19T05:01:27;12.00;99.90
34877;DHT22;21086;44.780;17.194;2022-10-19T05:03:57;12.10;99.90
34877;DHT22;21086;44.780;17.194;2022-10-19T05:06:24;12.10;99.90
34877;DHT22;21086;44.780;17.194;2022-10-19T05:08:52;12.00;99.90
34877;DHT22;21086;44.780;17.194;2022-10-19T05:11:19;12.00;99.90
34877;DHT22;21086;44.780;17.194;2022-10-19T05:13:47;12.00;99.90
34877;DHT22;21086;44.780;17.194;2022-10-19T05:16:20;11.90;99.90
34877;DHT22;21086;44.780;17.194;2022-10-19T05:18:52;11.80;99.90
34877;DHT22;21086;44.780;17.194;2022-10-19T05:21:19;11.90;99.90
34877;DHT22;21086;44.780;17.194;2022-10-19T05:23:50;12.00;99.90
34877;DHT22;21086;44.780;17.194;2022-10-19T05:26:19;12.10;99.90
34877;DHT22;21086;44.780;17.194;2022-10-19T08:35:34;19.40;99.90
34877;DHT22;21086;44.780;17.194;2022-10-19T08:40:37;19.80;99.90
34877;DHT22;21086;44.780;17.194;2022-10-19T08:43:14;19.90;99.90
34877;DHT22;21086;44.780;17.194;2022-10-19T08:48:32;19.80;99.90
34877;DHT22;21086;44.780;17.194;2022-10-19T08:51:00;19.60;99.90
34877;DHT22;21086;44.780;17.194;2022-10-19T08:59:32;20.10;99.90
34877;DHT22;21086;44.780;17.194;2022-10-19T09:07:49;21.00;99.90
34877;DHT22;21086;44.780;17.194;2022-10-19T09:10:29;21.20;99.90
34877;DHT22;21086;44.780;17.194;2022-10-19T09:12:59;21.40;99.90
34877;DHT22;21086;44.780;17.194;2022-10-19T09:18:33;21.90;99.90
34877;DHT22;21086;44.780;17.194;2022-10-19T09:26:18;22.40;99.90
34877;DHT22;21086;44.780;17.194;2022-10-19T09:31:37;22.80;99.90
34877;DHT22;21086;44.780;17.194;2022-10-19T09:34:22;23.00;99.90
34877;DHT22;21086;44.780;17.194;2022-10-19T09:36:56;23.50;99.90
34877;DHT22;21086;44.780;17.194;2022-10-19T09:39:25;23.90;99.90
34877;DHT22;21086;44.780;17.194;2022-10-19T09:44:39;24.70;99.90
34877;DHT22;21086;44.780;17.194;2022-10-19T09:47:36;24.90;99.90
34877;DHT22;21086;44.780;17.194;2022-10-19T09:52:50;25.00;99.90
34877;DHT22;21086;44.780;17.194;2022-10-19T09:58:00;25.40;99.90
34877;DHT22;21086;44.780;17.194;2022-10-19T10:00:34;25.50;99.90
34877;DHT22;21086;44.780;17.194;2022-10-19T10:03:01;25.60;99.90
34877;DHT22;21086;44.780;17.194;2022-10-19T10:05:35;26.00;99.90
34877;DHT22;21086;44.780;17.194;2022-10-19T10:08:03;26.00;99.90
34877;DHT22;21086;44.780;17.194;2022-10-19T10:10:38;26.60;99.90
34877;DHT22;21086;44.780;17.194;2022-10-19T10:13:20;27.20;99.90
34877;DHT22;21086;44.780;17.194;2022-10-19T10:15:56;27.50;99.90
34877;DHT22;21086;44.780;17.194;2022-10-19T10:18:26;27.80;99.90
34877;DHT22;21086;44.780;17.194;2022-10-19T10:23:28;28.80;99.90
34877;DHT22;21086;44.780;17.194;2022-10-19T10:25:58;29.70;99.90
34877;DHT22;21086;44.780;17.194;2022-10-19T10:28:28;30.60;99.90
34877;DHT22;21086;44.780;17.194;2022-10-19T10:31:04;31.80;99.90
34877;DHT22;21086;44.780;17.194;2022-10-19T10:33:34;32.30;99.90
34877;DHT22;21086;44.780;17.194;2022-10-19T10:36:11;32.30;99.90
34877;DHT22;21086;44.780;17.194;2022-10-19T10:38:45;32.00;99.90
34877;DHT22;21086;44.780;17.194;2022-10-19T10:41:19;32.00;99.90
34877;DHT22;21086;44.780;17.194;2022-10-19T10:43:55;32.20;99.90
34877;DHT22;21086;44.780;17.194;2022-10-19T10:46:54;32.90;99.90
34877;DHT22;21086;44.780;17.194;2022-10-19T10:49:25;33.90;99.90
34877;DHT22;21086;44.780;17.194;2022-10-19T10:51:56;33.60;99.90
34877;DHT22;21086;44.780;17.194;2022-10-19T10:54:28;33.50;99.90
34877;DHT22;21086;44.780;17.194;2022-10-19T10:57:13;33.50;99.90
34877;DHT22;21086;44.780;17.194;2022-10-19T11:00:16;32.90;99.90
34877;DHT22;21086;44.780;17.194;2022-10-19T11:03:15;32.30;99.90
34877;DHT22;21086;44.780;17.194;2022-10-19T11:05:57;31.60;99.90
34877;DHT22;21086;44.780;17.194;2022-10-19T11:11:20;32.70;99.90
34877;DHT22;21086;44.780;17.194;2022-10-19T11:13:50;33.80;99.90
34877;DHT22;21086;44.780;17.194;2022-10-19T11:16:23;34.50;99.90
34877;DHT22;21086;44.780;17.194;2022-10-19T11:18:52;35.60;99.90
34877;DHT22;21086;44.780;17.194;2022-10-19T11:30:11;35.70;99.90
34877;DHT22;21086;44.780;17.194;2022-10-19T11:33:05;35.40;99.90
34877;DHT22;21086;44.780;17.194;2022-10-19T11:38:27;36.50;99.90
34877;DHT22;21086;44.780;17.194;2022-10-19T11:44:12;37.70;99.90
34877;DHT22;21086;44.780;17.194;2022-10-19T11:56:47;39.90;99.90
34877;DHT22;21086;44.780;17.194;2022-10-19T12:11:46;40.90;99.90
34877;DHT22;21086;44.780;17.194;2022-10-19T12:14:19;41.20;99.90
34877;DHT22;21086;44.780;17.194;2022-10-19T12:16:52;41.20;99.90
34877;DHT22;21086;44.780;17.194;2022-10-19T12:19:32;41.40;99.90
34877;DHT22;21086;44.780;17.194;2022-10-19T12:22:03;41.50;99.90
34877;DHT22;21086;44.780;17.194;2022-10-19T12:24:32;41.30;99.90
34877;DHT22;21086;44.780;17.194;2022-10-19T12:27:00;41.30;99.90
34877;DHT22;21086;44.780;17.194;2022-10-19T12:29:37;40.90;99.90
34877;DHT22;21086;44.780;17.194;2022-10-19T12:32:06;40.90;99.90
34877;DHT22;21086;44.780;17.194;2022-10-19T12:34:53;40.90;99.90
34877;DHT22;21086;44.780;17.194;2022-10-19T12:37:56;41.20;99.90
34877;DHT22;21086;44.780;17.194;2022-10-19T12:40:54;40.70;99.90
34877;DHT22;21086;44.780;17.194;2022-10-19T12:43:41;39.90;99.90
34877;DHT22;21086;44.780;17.194;2022-10-19T12:51:53;38.50;99.90
34877;DHT22;21086;44.780;17.194;2022-10-19T12:54:40;38.70;99.90
34877;DHT22;21086;44.780;17.194;2022-10-19T12:57:25;39.20;99.90
34877;DHT22;21086;44.780;17.194;2022-10-19T13:00:04;39.60;99.90
34877;DHT22;21086;44.780;17.194;2022-10-19T13:02:34;39.80;99.90
34877;DHT22;21086;44.780;17.194;2022-10-19T13:05:03;40.00;99.90
34877;DHT22;21086;44.780;17.194;2022-10-19T13:07:32;40.50;99.90
34877;DHT22;21086;44.780;17.194;2022-10-19T13:10:03;39.70;99.90
34877;DHT22;21086;44.780;17.194;2022-10-19T13:12:43;39.50;99.90
34877;DHT22;21086;44.780;17.194;2022-10-19T13:18:00;39.40;99.90
34877;DHT22;21086;44.780;17.194;2022-10-19T13:46:46;40.80;99.90
34877;DHT22;21086;44.780;17.194;2022-10-19T14:11:16;38.40;99.90
34877;DHT22;21086;44.780;17.194;2022-10-19T14:13:45;38.10;99.90
34877;DHT22;21086;44.780;17.194;2022-10-19T14:16:20;37.90;99.90
34877;DHT22;21086;44.780;17.194;2022-10-19T14:18:55;37.80;99.90
34877;DHT22;21086;44.780;17.194;2022-10-19T14:21:33;38.30;99.90
34877;DHT22;21086;44.780;17.194;2022-10-19T14:24:20;38.40;99.90
34877;DHT22;21086;44.780;17.194;2022-10-19T14:26:47;38.00;99.90
34877;DHT22;21086;44.780;17.194;2022-10-19T14:29:14;38.40;99.90
34877;DHT22;21086;44.780;17.194;2022-10-19T14:31:41;38.30;99.90
34877;DHT22;21086;44.780;17.194;2022-10-19T14:34:08;37.30;99.90
34877;DHT22;21086;44.780;17.194;2022-10-19T14:36:47;36.00;99.90
34877;DHT22;21086;44.780;17.194;2022-10-19T14:39:29;35.00;99.90
34877;DHT22;21086;44.780;17.194;2022-10-19T14:42:02;34.10;99.90
34877;DHT22;21086;44.780;17.194;2022-10-19T14:44:41;33.70;99.90
34877;DHT22;21086;44.780;17.194;2022-10-19T14:47:22;33.60;99.90
34877;DHT22;21086;44.780;17.194;2022-10-19T14:49:52;32.70;99.90
34877;DHT22;21086;44.780;17.194;2022-10-19T14:52:23;31.40;99.90
34877;DHT22;21086;44.780;17.194;2022-10-19T14:54:55;30.50;99.90
34877;DHT22;21086;44.780;17.194;2022-10-19T14:57:28;29.70;99.90
34877;DHT22;21086;44.780;17.194;2022-10-19T14:59:58;28.90;99.90
34877;DHT22;21086;44.780;17.194;2022-10-19T15:02:56;28.20;99.90
34877;DHT22;21086;44.780;17.194;2022-10-19T15:05:27;27.40;99.90
34877;DHT22;21086;44.780;17.194;2022-10-19T15:07:55;26.70;99.90
34877;DHT22;21086;44.780;17.194;2022-10-19T15:10:28;26.10;99.90
34877;DHT22;21086;44.780;17.194;2022-10-19T15:13:04;25.70;99.90
34877;DHT22;21086;44.780;17.194;2022-10-19T15:15:33;25.40;99.90
34877;DHT22;21086;44.780;17.194;2022-10-19T15:20:38;25.20;99.90
34877;DHT22;21086;44.780;17.194;2022-10-19T15:23:35;25.20;99.90
34877;DHT22;21086;44.780;17.194;2022-10-19T15:28:51;24.90;99.90
34877;DHT22;21086;44.780;17.194;2022-10-19T15:31:23;24.80;99.90
34877;DHT22;21086;44.780;17.194;2022-10-19T15:33:54;24.90;99.90
34877;DHT22;21086;44.780;17.194;2022-10-19T15:36:22;24.80;99.90
34877;DHT22;21086;44.780;17.194;2022-10-19T15:39:06;25.00;99.90
34877;DHT22;21086;44.780;17.194;2022-10-19T15:41:51;24.80;99.90
34877;DHT22;21086;44.780;17.194;2022-10-19T15:44:39;24.50;99.90
34877;DHT22;21086;44.780;17.194;2022-10-19T15:52:19;23.60;99.90
34877;DHT22;21086;44.780;17.194;2022-10-19T15:54:56;23.20;99.90
34877;DHT22;21086;44.780;17.194;2022-10-19T15:59:54;22.60;99.90
34877;DHT22;21086;44.780;17.194;2022-10-19T16:02:23;22.50;99.90
34877;DHT22;21086;44.780;17.194;2022-10-19T16:04:53;22.30;99.90
34877;DHT22;21086;44.780;17.194;2022-10-19T16:07:27;22.20;99.90
34877;DHT22;21086;44.780;17.194;2022-10-19T16:09:55;21.90;99.90
34877;DHT22;21086;44.780;17.194;2022-10-19T16:12:24;21.70;99.90
34877;DHT22;21086;44.780;17.194;2022-10-19T16:14:53;21.50;99.90
34877;DHT22;21086;44.780;17.194;2022-10-19T16:17:20;21.30;99.90
34877;DHT22;21086;44.780;17.194;2022-10-19T16:19:48;21.20;99.90
34877;DHT22;21086;44.780;17.194;2022-10-19T16:22:15;21.00;99.90
34877;DHT22;21086;44.780;17.194;2022-10-19T16:24:42;20.90;99.90
34877;DHT22;21086;44.780;17.194;2022-10-19T16:27:09;20.70;99.90
34877;DHT22;21086;44.780;17.194;2022-10-19T16:29:41;20.50;99.90
34877;DHT22;21086;44.780;17.194;2022-10-19T16:32:09;20.40;99.90
34877;DHT22;21086;44.780;17.194;2022-10-19T16:34:36;20.20;99.90
34877;DHT22;21086;44.780;17.194;2022-10-19T16:37:03;20.10;99.90
34877;DHT22;21086;44.780;17.194;2022-10-19T16:39:33;20.00;99.90
34877;DHT22;21086;44.780;17.194;2022-10-19T16:42:00;19.90;99.90
34877;DHT22;21086;44.780;17.194;2022-10-19T16:44:27;19.80;99.90
34877;DHT22;21086;44.780;17.194;2022-10-19T16:46:55;19.70;99.90
34877;DHT22;21086;44.780;17.194;2022-10-19T16:49:23;19.70;99.90
34877;DHT22;21086;44.780;17.194;2022-10-19T16:51:50;19.60;99.90
34877;DHT22;21086;44.780;17.194;2022-10-19T16:54:23;19.50;99.90
34877;DHT22;21086;44.780;17.194;2022-10-19T16:56:51;19.40;99.90
34877;DHT22;21086;44.780;17.194;2022-10-19T16:59:19;19.40;99.90
34877;DHT22;21086;44.780;17.194;2022-10-19T17:01:46;19.40;99.90
34877;DHT22;21086;44.780;17.194;2022-10-19T17:04:15;19.30;99.90
34877;DHT22;21086;44.780;17.194;2022-10-19T17:06:43;19.30;99.90
34877;DHT22;21086;44.780;17.194;2022-10-19T17:09:11;19.20;99.90
34877;DHT22;21086;44.780;17.194;2022-10-19T17:11:59;19.00;99.90
34877;DHT22;21086;44.780;17.194;2022-10-19T17:14:26;19.00;99.90
34877;DHT22;21086;44.780;17.194;2022-10-19T17:16:54;19.00;99.90
34877;DHT22;21086;44.780;17.194;2022-10-19T17:19:21;19.10;99.90
34877;DHT22;21086;44.780;17.194;2022-10-19T17:21:49;19.10;99.90
34877;DHT22;21086;44.780;17.194;2022-10-19T17:24:17;19.10;99.90
34877;DHT22;21086;44.780;17.194;2022-10-19T17:26:49;19.10;99.90
34877;DHT22;21086;44.780;17.194;2022-10-19T17:29:18;19.10;99.90
34877;DHT22;21086;44.780;17.194;2022-10-19T17:31:47;19.10;99.90
34877;DHT22;21086;44.780;17.194;2022-10-19T17:34:14;19.10;99.90
34877;DHT22;21086;44.780;17.194;2022-10-19T17:36:43;19.20;99.90
34877;DHT22;21086;44.780;17.194;2022-10-19T17:39:19;19.20;99.90
34877;DHT22;21086;44.780;17.194;2022-10-19T17:41:54;19.20;99.90
34877;DHT22;21086;44.780;17.194;2022-10-19T17:44:23;19.00;99.90
34877;DHT22;21086;44.780;17.194;2022-10-19T17:46:50;19.00;99.90
34877;DHT22;21086;44.780;17.194;2022-10-19T17:49:18;19.00;99.90
34877;DHT22;21086;44.780;17.194;2022-10-19T17:51:45;19.00;99.90
34877;DHT22;21086;44.780;17.194;2022-10-19T17:54:13;18.90;99.90
34877;DHT22;21086;44.780;17.194;2022-10-19T17:56:42;18.80;99.90
34877;DHT22;21086;44.780;17.194;2022-10-19T17:59:12;18.80;99.90
34877;DHT22;21086;44.780;17.194;2022-10-19T18:01:40;18.80;99.90
34877;DHT22;21086;44.780;17.194;2022-10-19T18:04:09;18.80;99.90
34877;DHT22;21086;44.780;17.194;2022-10-19T18:09:09;18.40;99.90
34877;DHT22;21086;44.780;17.194;2022-10-19T18:11:42;18.40;99.90
34877;DHT22;21086;44.780;17.194;2022-10-19T18:14:12;18.20;99.90
34877;DHT22;21086;44.780;17.194;2022-10-19T18:16:41;18.00;99.90
34877;DHT22;21086;44.780;17.194;2022-10-19T18:19:13;18.00;99.90
34877;DHT22;21086;44.780;17.194;2022-10-19T18:35:19;17.50;99.90
34877;DHT22;21086;44.780;17.194;2022-10-19T23:24:08;14.60;99.90
